Time;durP1;ratioP1;P1;durP2;ratioP2;P2;SDS_P1;SDS_P2;PMS_P1;PMS_P2;Temp;Humidity;BMP_temperature;BMP_pressure;BME280_temperature;BME280_humidity;BME280_pressure;Samples;Min_cycle;Max_cycle;Signal;HPM_P1;HPM_P2
2020/12/29 00:01:39;;;;;;;6.61;6.01;;;4.70;99.90;;;9.48;89.45;97914.66;1719329;73;24474;-75
2020/12/29 00:03:55;;;;;;;7.79;7.03;;;4.70;99.90;;;9.50;89.09;97916.77;1718560;73;24474;-76
2020/12/29 00:06:10;;;;;;;8.53;7.40;;;4.70;99.90;;;9.47;90.41;97917.69;1715788;73;24488;-74
2020/12/29 00:08:29;;;;;;;8.18;7.36;;;4.70;99.90;;;9.45;90.27;97920.81;1706167;74;24563;-73
2020/12/29 00:10:47;;;;;;;8.35;7.46;;;4.70;99.90;;;9.45;89.46;97919.52;1709789;74;24440;-76
2020/12/29 00:13:03;;;;;;;9.25;7.40;;;4.70;99.90;;;9.41;89.37;97924.83;1711751;74;24940;-73
2020/12/29 00:15:19;;;;;;;8.26;7.48;;;4.70;99.90;;;9.16;89.52;97928.64;1707738;74;24527;-75
2020/12/29 00:17:35;;;;;;;8.41;7.59;;;4.60;99.90;;;9.25;90.54;97925.76;1708763;74;24495;-75
2020/12/29 00:19:51;;;;;;;8.90;8.03;;;4.60;99.90;;;9.37;91.34;97919.34;1708436;74;24480;-75
2020/12/29 00:22:07;;;;;;;8.32;7.53;;;4.60;99.90;;;9.45;90.96;97918.22;1714449;74;24432;-75
2020/12/29 00:24:24;;;;;;;8.55;7.68;;;4.60;99.90;;;9.50;90.36;97915.47;1705363;74;24898;-75
2020/12/29 00:26:40;;;;;;;8.95;7.70;;;4.60;99.90;;;9.62;90.58;97911.16;1714066;74;24446;-76
2020/12/29 00:28:59;;;;;;;9.05;7.94;;;4.60;99.90;;;9.59;89.71;97910.83;1708023;74;24531;-75
2020/12/29 00:31:20;;;;;;;9.70;8.56;;;4.60;99.90;;;9.60;89.97;97915.11;1705637;74;24929;-74
2020/12/29 00:33:37;;;;;;;9.63;8.63;;;4.60;99.90;;;9.59;89.01;97915.16;1706266;74;24424;-74
2020/12/29 00:35:53;;;;;;;9.78;8.67;;;4.60;99.90;;;9.76;89.71;97908.52;1710263;74;24437;-75
2020/12/29 00:38:10;;;;;;;10.68;8.71;;;4.60;99.90;;;9.91;89.56;97917.55;1706196;74;24515;-76
2020/12/29 00:40:28;;;;;;;9.73;8.70;;;4.60;99.90;;;9.75;88.27;97919.82;1706274;74;24468;-75
2020/12/29 00:42:44;;;;;;;9.87;8.81;;;4.60;99.90;;;9.59;87.90;97922.95;1706456;74;24466;-73
2020/12/29 00:45:02;;;;;;;9.76;8.67;;;4.60;99.90;;;9.61;88.13;97925.89;1710457;74;24479;-75
2020/12/29 00:47:19;;;;;;;10.49;8.99;;;4.60;99.90;;;9.63;87.81;97921.50;1711131;74;24962;-73
2020/12/29 00:49:39;;;;;;;9.62;8.50;;;4.60;99.90;;;9.74;88.28;97921.14;1707253;74;24489;-75
2020/12/29 00:51:56;;;;;;;11.09;9.68;;;4.60;99.90;;;9.85;88.11;97919.03;1703212;74;24566;-76
2020/12/29 00:54:14;;;;;;;10.34;9.24;;;4.60;99.90;;;10.00;88.60;97921.14;1704388;74;24402;-74
2020/12/29 00:56:32;;;;;;;10.83;9.78;;;4.60;99.90;;;10.01;88.10;97918.48;1705449;74;24476;-75
2020/12/29 00:58:52;;;;;;;10.37;9.31;;;4.60;99.90;;;10.01;88.00;97916.33;1710167;74;24517;-75
2020/12/29 01:01:11;;;;;;;10.50;9.31;;;4.60;99.90;;;10.02;87.51;97922.77;1702657;74;24520;-74
2020/12/29 01:03:30;;;;;;;13.15;10.10;;;4.70;99.90;;;10.05;87.73;97918.77;1704757;74;24905;-77
2020/12/29 01:05:47;;;;;;;11.01;9.44;;;4.70;99.90;;;10.03;87.52;97922.33;1710196;74;24452;-74
2020/12/29 01:08:04;;;;;;;11.94;9.89;;;4.70;99.90;;;9.97;87.10;97931.64;1708377;74;24447;-75
2020/12/29 01:10:23;;;;;;;11.83;9.58;;;4.70;99.90;;;10.06;87.41;97935.22;1710370;73;24761;-74
2020/12/29 01:12:51;;;;;;;10.79;9.34;;;4.70;99.90;;;10.10;87.71;97935.56;1694171;73;24436;-74
2020/12/29 01:15:09;;;;;;;11.11;9.79;;;4.60;99.90;;;9.83;86.49;97938.58;1714724;73;24507;-75
2020/12/29 01:17:27;;;;;;;10.77;9.66;;;4.70;99.90;;;9.89;87.04;97940.14;1710070;73;24433;-75
2020/12/29 01:19:42;;;;;;;11.64;9.97;;;4.70;99.90;;;9.90;87.02;97944.42;1714575;73;24788;-75
2020/12/29 01:22:01;;;;;;;10.60;9.49;;;4.70;99.90;;;9.96;87.45;97945.52;1721694;73;24582;-75
2020/12/29 01:24:17;;;;;;;11.59;10.33;;;4.70;99.90;;;10.04;87.19;97945.67;1717798;73;24510;-77
2020/12/29 01:26:33;;;;;;;11.55;10.15;;;4.70;99.90;;;9.97;87.14;97942.90;1719276;73;24554;-74
2020/12/29 01:28:48;;;;;;;11.54;10.33;;;4.70;99.90;;;10.03;87.03;97946.58;1716827;73;24498;-74
2020/12/29 01:31:05;;;;;;;11.22;10.03;;;4.70;99.90;;;10.19;87.90;97951.70;1713820;73;24513;-74
2020/12/29 01:33:21;;;;;;;12.20;10.24;;;4.70;99.90;;;10.19;88.11;97949.55;1713820;73;24524;-76
2020/12/29 01:35:37;;;;;;;11.50;10.32;;;4.70;99.90;;;10.12;88.25;97956.70;1714986;73;24491;-75
2020/12/29 01:37:53;;;;;;;11.59;10.40;;;4.70;99.90;;;10.07;88.96;97952.54;1717103;73;24505;-76
2020/12/29 01:40:15;;;;;;;11.44;10.36;;;4.70;99.90;;;10.12;89.42;97950.20;1718639;73;24444;-74
2020/12/29 01:42:35;;;;;;;12.89;10.82;;;4.80;99.90;;;10.02;89.21;97952.66;1719571;73;24483;-76
2020/12/29 01:44:51;;;;;;;12.40;11.11;;;4.80;99.90;;;10.10;88.31;97954.59;1718171;73;24472;-75
2020/12/29 01:47:07;;;;;;;12.28;11.07;;;4.80;99.90;;;10.08;88.08;97960.31;1719283;73;24871;-75
2020/12/29 01:49:25;;;;;;;12.30;11.10;;;4.80;99.90;;;10.03;87.17;97954.83;1718621;73;24474;-74
2020/12/29 01:51:42;;;;;;;12.34;11.06;;;4.80;99.90;;;9.99;86.96;97967.06;1715984;73;24431;-76
2020/12/29 01:54:02;;;;;;;12.45;11.28;;;4.80;99.90;;;10.05;87.03;97965.55;1716144;73;24874;-76
2020/12/29 01:56:19;;;;;;;11.21;10.19;;;4.80;99.90;;;10.11;87.54;97965.41;1716403;73;24471;-77
2020/12/29 01:58:38;;;;;;;12.14;11.01;;;4.80;99.90;;;10.10;87.29;97970.19;1714643;73;24483;-75
2020/12/29 02:00:55;;;;;;;12.06;10.87;;;4.80;99.90;;;10.07;87.21;97963.80;1730600;73;24539;-76
2020/12/29 02:03:16;;;;;;;11.66;10.56;;;4.80;99.90;;;10.05;87.15;97964.25;1719075;73;25023;-74
2020/12/29 02:05:36;;;;;;;11.94;10.50;;;4.80;99.90;;;10.03;87.14;97962.62;1722163;73;24582;-76
2020/12/29 02:07:55;;;;;;;12.11;10.85;;;4.80;99.90;;;10.09;87.33;97968.94;1725571;73;24381;-76
2020/12/29 02:10:11;;;;;;;11.50;10.36;;;4.80;99.90;;;10.02;86.56;97968.73;1712056;73;24564;-75
2020/12/29 02:12:30;;;;;;;12.14;10.97;;;4.80;99.90;;;9.87;86.76;97969.22;1709340;74;24544;-75
2020/12/29 02:14:47;;;;;;;12.26;11.07;;;4.80;99.90;;;10.02;87.78;97971.33;1703515;74;24473;-75
2020/12/29 02:17:03;;;;;;;12.53;11.32;;;4.80;99.90;;;10.09;88.02;97972.41;1709133;74;24436;-76
2020/12/29 02:19:20;;;;;;;11.48;10.35;;;4.80;99.90;;;10.12;87.87;97971.44;1710242;74;24449;-76
2020/12/29 02:21:38;;;;;;;12.11;10.87;;;4.80;99.90;;;10.16;88.00;97979.55;1703706;74;24475;-75
2020/12/29 02:23:55;;;;;;;12.58;11.39;;;4.80;99.90;;;10.11;87.35;97982.31;1714840;74;24472;-74
2020/12/29 02:26:11;;;;;;;11.77;10.34;;;4.80;99.90;;;9.99;87.12;97981.84;1703423;74;24452;-77
2020/12/29 02:28:27;;;;;;;11.33;10.26;;;4.80;99.90;;;9.95;87.05;97984.12;1709632;74;24481;-76
2020/12/29 02:30:43;;;;;;;10.15;8.91;;;4.80;99.90;;;9.82;88.21;97992.77;1708855;74;24485;-76
2020/12/29 02:33:01;;;;;;;10.79;9.30;;;4.70;99.90;;;9.63;87.23;97995.98;1678035;75;24456;-74
2020/12/29 02:35:18;;;;;;;9.74;8.72;;;4.70;99.90;;;9.62;87.55;98002.95;1706159;74;24468;-76
2020/12/29 02:37:34;;;;;;;10.35;9.32;;;4.70;99.90;;;9.69;87.73;97999.23;1672433;75;24504;-74
2020/12/29 02:39:54;;;;;;;10.00;9.00;;;4.70;99.90;;;9.76;88.65;97999.46;1709953;74;24502;-75
2020/12/29 02:42:12;;;;;;;12.25;9.77;;;4.70;99.90;;;9.72;87.44;97996.54;1704679;74;24453;-75
2020/12/29 02:44:28;;;;;;;9.08;8.09;;;4.70;99.90;;;9.62;88.16;98000.34;1705286;74;24484;-75
2020/12/29 02:46:48;;;;;;;9.06;8.07;;;4.70;99.90;;;9.51;88.13;98005.46;1704473;74;24926;-74
2020/12/29 02:49:04;;;;;;;9.75;8.75;;;4.70;99.90;;;9.62;88.43;98013.34;1702605;74;24930;-76
2020/12/29 02:51:24;;;;;;;10.20;8.74;;;4.70;99.90;;;9.65;88.50;98005.88;1705521;74;25052;-75
2020/12/29 02:53:41;;;;;;;9.50;8.56;;;4.70;99.90;;;9.62;88.23;98004.24;1683677;74;25103;-77
2020/12/29 02:55:57;;;;;;;10.00;8.72;;;4.60;99.90;;;9.50;88.60;98014.99;1714199;74;24468;-74
2020/12/29 02:58:13;;;;;;;10.09;8.69;;;4.60;99.90;;;9.54;87.86;98011.42;1706425;74;24515;-74
2020/12/29 03:00:28;;;;;;;9.60;8.62;;;4.60;99.90;;;9.73;88.41;98020.34;1706056;74;24908;-75
2020/12/29 03:02:44;;;;;;;9.35;8.38;;;4.60;99.90;;;9.53;87.84;98013.59;1714093;74;24530;-74
2020/12/29 03:05:02;;;;;;;9.70;8.81;;;4.60;99.90;;;9.57;88.01;98015.22;1713159;74;24932;-74
2020/12/29 03:07:19;;;;;;;10.06;9.06;;;4.60;99.90;;;9.53;87.54;98021.39;1675876;75;24444;-75
2020/12/29 03:09:35;;;;;;;10.65;9.56;;;4.60;99.90;;;9.65;89.15;98021.03;1705033;74;24506;-75
2020/12/29 03:11:52;;;;;;;11.12;9.98;;;4.60;99.90;;;9.59;88.12;98021.23;1705457;74;24490;-75
2020/12/29 03:14:10;;;;;;;10.69;9.15;;;4.60;99.90;;;9.67;88.25;98024.44;1705076;74;24513;-73
2020/12/29 03:16:27;;;;;;;9.85;8.90;;;4.60;99.90;;;9.51;87.40;98019.75;1706211;74;25007;-76
2020/12/29 03:18:44;;;;;;;10.71;9.59;;;4.60;99.90;;;9.33;88.07;98027.64;1711883;74;24941;-73
2020/12/29 03:21:00;;;;;;;10.90;9.29;;;4.50;99.90;;;9.57;88.80;98033.41;1711599;74;24436;-75
2020/12/29 03:23:16;;;;;;;9.82;8.90;;;4.50;99.90;;;9.42;87.58;98035.62;1699040;74;24402;-76
2020/12/29 03:25:33;;;;;;;11.46;9.64;;;4.50;99.90;;;9.48;87.44;98036.28;1713347;74;24572;-73
2020/12/29 03:27:51;;;;;;;10.35;9.30;;;4.50;99.90;;;9.46;87.34;98051.50;1711305;74;24960;-75
2020/12/29 03:30:07;;;;;;;9.60;8.55;;;4.50;99.90;;;9.40;88.55;98053.84;1705326;74;24536;-75
2020/12/29 03:32:23;;;;;;;9.68;8.66;;;4.50;99.90;;;9.33;87.86;98055.34;1712880;74;24894;-75
2020/12/29 03:34:40;;;;;;;10.10;9.03;;;4.50;99.90;;;9.39;88.52;98058.61;1676833;75;24449;-75
2020/12/29 03:36:58;;;;;;;10.05;9.02;;;4.50;99.90;;;9.35;89.08;98059.61;1708930;74;24509;-73
2020/12/29 03:39:14;;;;;;;10.59;9.48;;;4.50;99.90;;;9.41;89.10;98058.56;1710983;74;24434;-75
2020/12/29 03:41:30;;;;;;;10.32;9.27;;;4.50;99.90;;;9.49;88.77;98062.65;1708246;74;24452;-74
2020/12/29 03:43:46;;;;;;;10.58;9.57;;;4.50;99.90;;;9.55;88.66;98064.23;1708873;74;24917;-75
2020/12/29 03:46:02;;;;;;;10.14;9.11;;;4.50;99.90;;;9.54;88.46;98067.27;1716085;74;24468;-75
2020/12/29 03:48:21;;;;;;;10.09;9.07;;;4.50;99.90;;;9.58;89.00;98075.36;1705596;74;24507;-76
2020/12/29 03:50:38;;;;;;;10.52;9.33;;;4.60;99.90;;;9.57;88.53;98074.97;1709030;74;24476;-74
2020/12/29 03:52:54;;;;;;;10.55;9.55;;;4.60;99.90;;;9.59;88.46;98074.48;1705066;74;24863;-75
2020/12/29 03:55:12;;;;;;;10.44;9.40;;;4.60;99.90;;;9.50;88.29;98077.33;1705699;74;24882;-74
2020/12/29 03:57:28;;;;;;;10.98;9.71;;;4.60;99.90;;;9.52;87.82;98079.44;1705651;74;24628;-74
2020/12/29 03:59:44;;;;;;;10.55;9.05;;;4.60;99.90;;;9.58;88.14;98079.25;1674486;76;24883;-75
2020/12/29 04:02:00;;;;;;;13.13;9.25;;;4.60;99.90;;;9.55;87.32;98075.45;1708000;74;24428;-73
2020/12/29 04:04:16;;;;;;;10.68;9.61;;;4.60;99.90;;;9.65;87.26;98077.33;1708219;74;24481;-74
2020/12/29 04:06:33;;;;;;;11.07;9.96;;;4.60;99.90;;;9.77;88.66;98089.50;1705124;74;24583;-76
2020/12/29 04:08:49;;;;;;;10.38;9.31;;;4.60;99.90;;;9.53;86.95;98091.99;1704812;74;24536;-73
2020/12/29 04:11:06;;;;;;;10.14;9.19;;;4.60;99.90;;;9.60;86.98;98088.30;1707738;74;24464;-73
2020/12/29 04:13:24;;;;;;;11.03;9.94;;;4.60;99.90;;;9.55;87.19;98093.63;1706006;75;24645;-75
2020/12/29 04:15:40;;;;;;;10.51;8.98;;;4.60;99.90;;;9.66;88.37;98098.53;1710025;74;24472;-75
2020/12/29 04:17:57;;;;;;;11.56;10.37;;;4.60;99.90;;;9.65;87.06;98103.30;1708651;74;24489;-73
2020/12/29 04:20:14;;;;;;;13.49;10.38;;;4.60;99.90;;;9.59;87.92;98104.36;1678658;75;24457;-74
2020/12/29 04:22:34;;;;;;;11.13;10.03;;;4.60;99.90;;;9.66;87.30;98105.86;1704487;74;24437;-73
2020/12/29 04:24:51;;;;;;;11.72;10.29;;;4.60;99.90;;;9.60;87.58;98109.94;1704868;74;24977;-74
2020/12/29 04:27:07;;;;;;;10.51;9.51;;;4.60;99.90;;;9.47;88.79;98107.29;1708922;74;24446;-74
2020/12/29 04:29:23;;;;;;;12.81;10.62;;;4.60;99.90;;;9.41;88.62;98111.37;1706183;74;25876;-73
2020/12/29 04:31:40;;;;;;;11.16;9.90;;;4.60;99.90;;;9.56;87.37;98113.98;1705633;74;24458;-75
2020/12/29 04:33:55;;;;;;;11.46;10.32;;;4.60;99.90;;;9.62;87.85;98109.89;1704911;74;24481;-76
2020/12/29 04:36:11;;;;;;;11.97;10.72;;;4.50;99.90;;;9.60;88.49;98107.78;1707620;74;24449;-74
2020/12/29 04:38:31;;;;;;;11.47;10.33;;;4.60;99.90;;;9.51;87.73;98111.95;1705934;74;24463;-75
2020/12/29 04:40:47;;;;;;;11.70;10.39;;;4.50;99.90;;;9.44;88.24;98113.88;1709496;74;24508;-74
2020/12/29 04:43:04;;;;;;;12.12;10.05;;;4.60;99.90;;;9.49;88.88;98119.80;1706636;74;24582;-75
2020/12/29 04:45:21;;;;;;;11.63;10.52;;;4.50;99.90;;;9.35;87.76;98113.28;1707187;74;24426;-74
2020/12/29 04:47:41;;;;;;;11.50;9.52;;;4.60;99.90;;;9.45;87.75;98116.03;1719832;74;24520;-76
2020/12/29 04:49:59;;;;;;;12.26;10.75;;;4.50;99.90;;;9.27;87.38;98121.30;1705733;75;24928;-75
2020/12/29 04:52:15;;;;;;;11.75;10.55;;;4.50;99.90;;;9.41;88.20;98120.45;1705487;75;24438;-75
2020/12/29 04:54:36;;;;;;;12.83;10.57;;;4.50;99.90;;;9.44;88.52;98128.16;1707263;74;24940;-75
2020/12/29 04:56:58;;;;;;;12.41;11.11;;;4.50;99.90;;;9.41;88.06;98121.75;1705688;74;24445;-75
2020/12/29 04:59:13;;;;;;;12.34;10.40;;;4.40;99.90;;;9.48;87.83;98128.49;1712450;74;24456;-73
2020/12/29 05:01:35;;;;;;;12.19;10.32;;;4.40;99.90;;;9.39;87.33;98129.20;1706349;74;25003;-74
2020/12/29 05:03:52;;;;;;;11.30;10.18;;;4.40;99.90;;;9.37;88.12;98128.38;1705913;74;24974;-76
2020/12/29 05:06:08;;;;;;;11.63;10.41;;;4.40;99.90;;;9.38;87.72;98135.27;1707046;74;25056;-74
2020/12/29 05:08:24;;;;;;;12.44;11.16;;;4.40;99.90;;;9.37;87.60;98137.03;1715573;74;24944;-75
2020/12/29 05:10:49;;;;;;;12.97;10.84;;;4.40;99.90;;;9.47;88.00;98135.03;1706573;74;24856;-75
2020/12/29 05:13:07;;;;;;;11.56;10.10;;;4.40;99.90;;;9.37;87.46;98139.63;1715428;73;24510;-74
2020/12/29 05:15:25;;;;;;;12.66;10.54;;;4.40;99.90;;;9.34;87.70;98140.16;1724476;74;24900;-74
2020/12/29 05:17:42;;;;;;;12.69;10.96;;;4.40;99.90;;;9.58;88.66;98148.09;1724481;73;24510;-75
2020/12/29 05:19:59;;;;;;;13.18;11.62;;;4.40;99.90;;;9.48;88.32;98148.41;1725202;73;24954;-75
2020/12/29 05:22:18;;;;;;;13.88;11.14;;;4.40;99.90;;;9.50;89.28;98153.12;1725423;73;24507;-75
2020/12/29 05:24:37;;;;;;;13.46;11.61;;;4.40;99.90;;;9.37;87.78;98153.91;1724737;73;25159;-74
2020/12/29 05:26:58;;;;;;;13.28;11.10;;;4.40;99.90;;;9.40;88.37;98157.72;1724644;73;24908;-77
2020/12/29 05:29:17;;;;;;;11.88;10.15;;;4.40;99.90;;;9.31;87.67;98156.66;1691693;75;24529;-75
2020/12/29 05:31:37;;;;;;;13.40;11.36;;;4.40;99.90;;;9.31;87.71;98158.42;1657540;76;24598;-75
2020/12/29 05:33:54;;;;;;;14.48;11.82;;;4.40;99.90;;;9.36;87.89;98163.87;1681712;76;24444;-75
2020/12/29 05:36:12;;;;;;;14.01;12.58;;;4.40;99.90;;;9.31;87.89;98164.91;1726314;73;25008;-75
2020/12/29 05:38:30;;;;;;;13.86;12.30;;;4.40;99.90;;;9.49;89.55;98169.14;1724719;73;24456;-75
2020/12/29 05:40:49;;;;;;;13.65;11.60;;;4.50;99.90;;;9.58;88.98;98174.07;1725030;73;24435;-76
2020/12/29 05:43:08;;;;;;;15.50;13.60;;;4.50;99.90;;;9.35;87.22;98176.47;1732356;73;24452;-75
2020/12/29 05:45:30;;;;;;;15.32;12.98;;;4.50;99.90;;;9.52;88.97;98177.28;1725165;73;24431;-75
2020/12/29 05:47:54;;;;;;;14.85;13.07;;;4.50;99.90;;;9.59;89.55;98183.59;1726584;73;24516;-73
2020/12/29 05:50:13;;;;;;;14.85;13.27;;;4.50;99.90;;;9.63;88.83;98186.48;1739971;73;24943;-75
2020/12/29 05:52:31;;;;;;;15.59;12.40;;;4.50;99.90;;;9.46;88.17;98184.81;1737845;73;24547;-75
2020/12/29 05:54:50;;;;;;;17.67;14.63;;;4.50;99.90;;;9.51;87.61;98192.04;1725131;73;24444;-73
2020/12/29 05:57:07;;;;;;;20.80;15.65;;;4.50;99.90;;;9.63;88.00;98195.58;1724808;73;24937;-75
2020/12/29 05:59:30;;;;;;;17.80;15.10;;;4.50;99.90;;;9.57;88.96;98197.50;1733236;73;24504;-75
2020/12/29 06:01:49;;;;;;;17.94;13.92;;;4.50;99.90;;;9.56;88.71;98200.56;1725987;73;24453;-76
2020/12/29 06:04:06;;;;;;;20.16;15.88;;;4.50;99.90;;;9.48;87.74;98201.22;1691799;75;24419;-74
2020/12/29 06:06:25;;;;;;;19.73;17.12;;;4.50;99.90;;;9.51;89.08;98203.73;1672558;76;24471;-75
2020/12/29 06:08:47;;;;;;;19.41;16.09;;;4.60;99.90;;;9.57;89.68;98202.69;1730539;73;24506;-74
2020/12/29 06:11:09;;;;;;;22.98;17.88;;;4.50;99.90;;;9.36;88.13;98208.49;1725473;73;24439;-75
2020/12/29 06:13:29;;;;;;;19.12;16.63;;;4.50;99.90;;;9.40;89.39;98212.26;1702330;74;24558;-75
2020/12/29 06:15:50;;;;;;;22.00;16.38;;;4.50;99.90;;;9.45;88.73;98217.33;1717726;74;24462;-76
2020/12/29 06:18:09;;;;;;;17.46;12.39;;;4.50;99.90;;;9.60;88.41;98216.45;1726370;74;24468;-76
2020/12/29 06:20:37;;;;;;;22.52;17.24;;;4.50;99.90;;;9.24;87.97;98210.95;1718851;74;24516;-75
2020/12/29 06:22:58;;;;;;;24.12;18.55;;;4.50;99.90;;;9.30;88.61;98218.58;1721103;74;24600;-74
2020/12/29 06:25:18;;;;;;;22.96;18.83;;;4.50;99.90;;;9.35;89.00;98217.16;1720412;74;24434;-75
2020/12/29 06:27:38;;;;;;;24.14;18.70;;;4.50;99.90;;;9.47;89.16;98222.04;1720427;74;24553;-75
2020/12/29 06:29:56;;;;;;;23.19;17.84;;;4.40;99.90;;;9.40;88.85;98224.38;1715702;73;24579;-74
2020/12/29 06:32:19;;;;;;;21.16;17.60;;;4.40;99.90;;;9.16;88.35;98223.28;1715204;74;24490;-74
2020/12/29 06:34:41;;;;;;;23.95;19.79;;;4.40;99.90;;;9.13;89.05;98225.53;1711503;74;24594;-73
2020/12/29 06:37:01;;;;;;;22.27;18.99;;;4.40;99.90;;;9.26;89.69;98235.58;1713592;74;24930;-75
2020/12/29 06:39:19;;;;;;;23.96;19.99;;;4.40;99.90;;;9.22;89.95;98234.80;1712206;74;25000;-73
2020/12/29 06:41:37;;;;;;;22.66;17.49;;;4.40;99.90;;;9.22;89.98;98238.70;1717910;74;24914;-75
2020/12/29 06:43:53;;;;;;;27.06;20.51;;;4.40;99.90;;;9.01;89.61;98248.31;1721514;74;24489;-76
2020/12/29 06:46:18;;;;;;;26.44;21.60;;;4.40;99.90;;;9.08;90.96;98244.69;1717231;74;24895;-74
2020/12/29 06:48:34;;;;;;;27.08;21.07;;;4.40;99.90;;;9.42;90.97;98248.11;1722073;74;24443;-74
2020/12/29 06:50:50;;;;;;;26.61;20.73;;;4.40;99.90;;;9.23;90.24;98246.91;1718780;74;24504;-74
2020/12/29 06:53:07;;;;;;;25.21;20.88;;;4.40;99.90;;;9.19;90.06;98254.35;1713167;74;24489;-74
2020/12/29 06:55:23;;;;;;;28.70;23.24;;;4.40;99.90;;;9.22;90.58;98262.06;1716452;74;24425;-76
2020/12/29 06:57:53;;;;;;;29.27;21.90;;;4.40;99.90;;;9.28;90.55;98254.11;1713684;74;24457;-75
2020/12/29 07:00:23;;;;;;;25.20;18.77;;;4.40;99.90;;;9.23;89.95;98257.73;1720675;74;24850;-75
2020/12/29 07:02:41;;;;;;;25.91;17.75;;;4.40;99.90;;;9.11;89.90;98266.23;1711787;74;24442;-74
2020/12/29 07:04:58;;;;;;;30.45;22.58;;;4.40;99.90;;;9.33;90.08;98263.94;1718174;74;24974;-76
2020/12/29 07:07:30;;;;;;;29.12;22.94;;;4.40;99.90;;;9.44;90.12;98268.88;1719040;74;24446;-75
2020/12/29 07:09:48;;;;;;;31.25;22.97;;;4.40;99.90;;;9.39;90.33;98272.86;1712753;74;24480;-75
2020/12/29 07:12:10;;;;;;;33.17;25.17;;;4.40;99.90;;;9.51;90.30;98280.36;1719222;74;24504;-74
2020/12/29 07:14:35;;;;;;;34.01;24.56;;;4.40;99.90;;;9.58;90.27;98280.58;1717541;74;24461;-76
2020/12/29 07:16:56;;;;;;;32.57;23.94;;;4.40;99.90;;;9.56;89.78;98291.48;1696661;75;24449;-76
2020/12/29 07:19:14;;;;;;;31.85;25.44;;;4.50;99.90;;;9.48;89.51;98293.86;1710773;73;24936;-75
2020/12/29 07:21:34;;;;;;;29.31;21.36;;;4.50;99.90;;;9.49;89.64;98301.61;1706741;75;24443;-74
2020/12/29 07:23:57;;;;;;;32.06;25.69;;;4.50;99.90;;;9.31;90.04;98300.77;1700853;75;24408;-74
2020/12/29 07:26:14;;;;;;;31.66;23.55;;;4.50;99.90;;;9.48;90.94;98308.15;1699082;75;24583;-75
2020/12/29 07:28:34;;;;;;;32.23;25.77;;;4.50;99.90;;;9.42;90.30;98311.73;1702796;75;24507;-73
2020/12/29 07:30:51;;;;;;;31.01;23.91;;;4.50;99.90;;;9.48;91.30;98314.64;1702392;75;24886;-74
2020/12/29 07:33:11;;;;;;;27.82;20.45;;;4.50;99.90;;;9.59;91.15;98320.41;1704864;75;24445;-76
2020/12/29 07:35:32;;;;;;;30.43;24.14;;;4.50;99.90;;;9.54;90.86;98328.33;1707746;75;24496;-74
2020/12/29 07:37:53;;;;;;;33.04;22.67;;;4.50;99.90;;;9.49;90.78;98331.48;1698439;75;24444;-73
2020/12/29 07:40:09;;;;;;;30.88;24.45;;;4.50;99.90;;;9.37;90.58;98329.64;1694495;75;24424;-74
2020/12/29 07:42:25;;;;;;;34.91;26.53;;;4.50;99.90;;;9.74;91.52;98337.75;1705261;75;24430;-74
2020/12/29 07:44:43;;;;;;;30.14;21.68;;;4.60;99.90;;;9.60;91.22;98346.78;1701429;75;24864;-77
2020/12/29 07:47:02;;;;;;;30.02;23.47;;;4.60;99.90;;;9.44;92.05;98347.63;1693842;75;24462;-75
2020/12/29 07:49:19;;;;;;;29.93;22.87;;;4.60;99.90;;;9.38;92.85;98358.17;1702953;75;24949;-75
2020/12/29 07:51:48;;;;;;;28.66;21.12;;;4.60;99.90;;;9.36;93.01;98359.94;1702215;74;24507;-75
2020/12/29 07:54:07;;;;;;;29.91;21.26;;;4.60;99.90;;;9.33;92.21;98365.22;1706506;75;24872;-75
2020/12/29 07:56:23;;;;;;;33.79;22.35;;;4.60;99.90;;;9.44;92.42;98368.41;1697043;75;24535;-76
2020/12/29 07:58:39;;;;;;;31.67;21.14;;;4.60;99.90;;;9.31;92.66;98364.86;1692335;75;24966;-75
2020/12/29 08:00:58;;;;;;;31.46;21.74;;;4.50;99.90;;;9.46;92.76;98367.92;1706931;75;24965;-75
2020/12/29 08:03:17;;;;;;;34.34;24.50;;;4.50;99.90;;;9.48;92.64;98376.98;1699577;74;24488;-75
2020/12/29 08:05:36;;;;;;;27.40;17.03;;;4.50;99.90;;;9.48;93.16;98376.98;1698662;75;24982;-76
2020/12/29 08:07:58;;;;;;;37.00;22.81;;;4.50;99.90;;;9.36;91.92;98383.78;1712196;75;24461;-74
2020/12/29 08:10:21;;;;;;;36.67;25.17;;;4.50;99.90;;;9.48;92.66;98390.83;1698068;75;24446;-77
2020/12/29 08:12:37;;;;;;;38.18;22.00;;;4.50;99.90;;;9.29;93.14;98393.89;1707671;75;24453;-76
2020/12/29 08:14:54;;;;;;;38.72;23.92;;;4.50;99.90;;;9.03;92.69;98405.73;1705002;74;24439;-75
2020/12/29 08:17:10;;;;;;;37.34;24.12;;;4.50;99.90;;;9.12;93.17;98415.90;1709793;74;24427;-76
2020/12/29 08:19:29;;;;;;;36.54;22.50;;;4.50;99.90;;;9.11;93.27;98413.34;1705456;74;24609;-74
2020/12/29 08:21:47;;;;;;;37.47;25.64;;;4.50;99.90;;;9.05;92.96;98419.54;1706443;75;24440;-75
2020/12/29 08:24:07;;;;;;;33.39;22.43;;;4.40;99.90;;;8.95;93.25;98426.24;1708797;74;24440;-75
2020/12/29 08:26:24;;;;;;;31.84;20.37;;;4.40;99.90;;;8.90;93.86;98422.89;1705697;74;24899;-74
2020/12/29 08:28:44;;;;;;;29.56;19.19;;;4.40;99.90;;;9.03;93.49;98424.34;1705184;74;24536;-74
2020/12/29 08:31:04;;;;;;;26.96;17.49;;;4.40;99.90;;;8.99;93.64;98431.33;1706293;74;24437;-73
2020/12/29 08:33:24;;;;;;;25.67;17.27;;;4.40;99.90;;;9.05;93.34;98439.01;1706192;74;24499;-75
2020/12/29 08:35:48;;;;;;;24.89;17.51;;;4.40;99.90;;;9.01;93.43;98436.48;1709134;74;24438;-75
2020/12/29 08:38:38;;;;;;;27.11;18.02;;;4.40;99.90;;;8.93;93.45;98440.55;1710176;74;24500;-74
2020/12/29 08:41:02;;;;;;;24.97;15.91;;;4.40;99.90;;;9.03;92.78;98443.80;1705441;74;24588;-75
2020/12/29 08:43:21;;;;;;;25.53;18.58;;;4.40;99.90;;;8.98;92.80;98445.64;1704583;74;24449;-73
2020/12/29 08:45:39;;;;;;;25.09;16.82;;;4.40;99.90;;;8.91;93.46;98455.76;1691547;75;25024;-74
2020/12/29 08:47:58;;;;;;;27.16;18.77;;;4.40;99.90;;;8.91;93.04;98451.86;1705727;75;24526;-75
2020/12/29 08:50:34;;;;;;;29.37;20.38;;;4.40;99.90;;;8.97;93.06;98458.22;1704876;74;24497;-74
2020/12/29 08:52:54;;;;;;;29.22;18.62;;;4.40;99.90;;;8.89;93.17;98461.41;1705564;74;24448;-75
2020/12/29 08:55:32;;;;;;;26.30;18.67;;;4.40;99.90;;;8.83;93.39;98471.92;1705069;74;24523;-74
2020/12/29 08:57:51;;;;;;;24.29;15.90;;;4.40;99.90;;;8.96;93.15;98488.50;1706536;74;24461;-73
2020/12/29 09:00:14;;;;;;;21.93;15.42;;;4.40;99.90;;;8.82;93.08;98485.80;1712255;74;24542;-74
2020/12/29 09:02:33;;;;;;;26.44;19.30;;;4.40;99.90;;;8.88;92.59;98489.09;1707969;74;24423;-75
2020/12/29 09:04:53;;;;;;;27.16;19.63;;;4.30;99.90;;;8.87;93.12;98486.10;1723225;74;24472;-74
2020/12/29 09:07:11;;;;;;;25.10;17.18;;;4.30;99.90;;;8.95;93.58;98488.53;1705795;74;24455;-75
2020/12/29 09:09:28;;;;;;;28.90;20.70;;;4.30;99.90;;;8.99;92.52;98495.38;1706648;74;25149;-74
2020/12/29 09:11:44;;;;;;;28.05;19.65;;;4.30;99.90;;;9.03;93.38;98499.61;1706413;74;24556;-74
2020/12/29 09:14:05;;;;;;;26.53;19.32;;;4.40;99.90;;;9.11;92.96;98498.58;1708993;74;24883;-74
2020/12/29 09:16:21;;;;;;;27.00;19.34;;;4.40;99.90;;;9.19;92.95;98510.09;1715680;73;24438;-76
2020/12/29 09:18:42;;;;;;;24.12;18.02;;;4.40;99.90;;;9.17;93.10;98504.93;1725227;73;24448;-75
2020/12/29 09:20:58;;;;;;;26.14;18.70;;;4.40;99.90;;;9.11;93.06;98516.75;1724579;73;24592;-74
2020/12/29 09:23:18;;;;;;;25.12;18.27;;;4.50;99.90;;;9.25;92.82;98508.65;1724749;73;24498;-75
2020/12/29 09:25:38;;;;;;;23.14;17.24;;;4.60;99.90;;;9.27;93.26;98526.36;1725527;73;24489;-74
2020/12/29 09:28:19;;;;;;;24.10;18.06;;;4.60;99.90;;;9.31;93.01;98525.39;1730869;73;24504;-76
2020/12/29 09:30:37;;;;;;;24.50;18.21;;;4.70;99.90;;;9.38;92.86;98530.02;1729064;73;24376;-75
2020/12/29 09:32:55;;;;;;;24.40;18.64;;;4.70;99.90;;;9.53;92.88;98530.99;1732716;73;24534;-74
2020/12/29 09:35:25;;;;;;;23.65;17.12;;;4.80;99.90;;;9.46;93.20;98540.66;1739211;73;24558;-74
2020/12/29 09:37:46;;;;;;;23.23;16.35;;;4.80;99.90;;;9.34;93.36;98541.38;1729192;73;24520;-75
2020/12/29 09:40:02;;;;;;;21.97;16.62;;;4.90;99.90;;;9.43;93.41;98553.72;1724548;73;24444;-75
2020/12/29 09:42:18;;;;;;;21.39;15.97;;;4.90;99.90;;;9.51;93.09;98553.55;1726102;73;24984;-75
2020/12/29 09:44:34;;;;;;;22.84;18.07;;;4.90;99.90;;;9.32;93.04;98551.80;1725145;73;25036;-75